地図

経路データ

SID SEASON NUMBER BASIN SUBBASIN NAME ISO_TIME NATURE LAT LON WMO_WIND WMO_PRES WMO_AGENCY TRACK_TYPE DIST2LAND LANDFALL IFLAG USA_AGENCY USA_ATCF_ID USA_LAT USA_LON USA_RECORD USA_STATUS USA_WIND USA_PRES USA_SSHS USA_R34_NE USA_R34_SE USA_R34_SW USA_R34_NW USA_R50_NE USA_R50_SE USA_R50_SW USA_R50_NW USA_R64_NE USA_R64_SE USA_R64_SW USA_R64_NW USA_POCI USA_ROCI USA_RMW USA_EYE TOKYO_LAT TOKYO_LON TOKYO_GRADE TOKYO_WIND TOKYO_PRES TOKYO_R50_DIR TOKYO_R50_LONG TOKYO_R50_SHORT TOKYO_R30_DIR TOKYO_R30_LONG TOKYO_R30_SHORT TOKYO_LAND CMA_LAT CMA_LON CMA_CAT CMA_WIND CMA_PRES HKO_LAT HKO_LON HKO_CAT HKO_WIND HKO_PRES NEWDELHI_LAT NEWDELHI_LON NEWDELHI_GRADE NEWDELHI_WIND NEWDELHI_PRES NEWDELHI_CI NEWDELHI_DP NEWDELHI_POCI REUNION_LAT REUNION_LON REUNION_TYPE REUNION_WIND REUNION_PRES REUNION_TNUM REUNION_CI REUNION_RMW REUNION_R34_NE REUNION_R34_SE REUNION_R34_SW REUNION_R34_NW REUNION_R50_NE REUNION_R50_SE REUNION_R50_SW REUNION_R50_NW REUNION_R64_NE REUNION_R64_SE REUNION_R64_SW REUNION_R64_NW BOM_LAT BOM_LON BOM_TYPE BOM_WIND BOM_PRES BOM_TNUM BOM_CI BOM_RMW BOM_R34_NE BOM_R34_SE BOM_R34_SW BOM_R34_NW BOM_R50_NE BOM_R50_SE BOM_R50_SW BOM_R50_NW BOM_R64_NE BOM_R64_SE BOM_R64_SW BOM_R64_NW BOM_ROCI BOM_POCI BOM_EYE BOM_POS_METHOD BOM_PRES_METHOD NADI_LAT NADI_LON NADI_CAT NADI_WIND NADI_PRES WELLINGTON_LAT WELLINGTON_LON WELLINGTON_WIND WELLINGTON_PRES DS824_LAT DS824_LON DS824_STAGE DS824_WIND DS824_PRES TD9636_LAT TD9636_LON TD9636_STAGE TD9636_WIND TD9636_PRES TD9635_LAT TD9635_LON TD9635_WIND TD9635_PRES TD9635_ROCI NEUMANN_LAT NEUMANN_LON NEUMANN_CLASS NEUMANN_WIND NEUMANN_PRES MLC_LAT MLC_LON MLC_CLASS MLC_WIND MLC_PRES USA_GUST BOM_GUST BOM_GUST_PER REUNION_GUST REUNION_GUST_PER USA_SEAHGT USA_SEARAD_NE USA_SEARAD_SE USA_SEARAD_SW USA_SEARAD_NW STORM_SPEED STORM_DIR
1974068S12112 1974 20 SI WA ISOBEL 1974-03-09 00:00:00 TS -12.0000 111.700 main 403 403 O_________O___ jtwc_sh SH281974 -12.0000 111.700 -1 -12.0000 111.700 4 4 233
1974068S12112 1974 20 SI WA ISOBEL 1974-03-09 01:00:00 TS -12.0408 111.643 20 1003 bom main 403 403 P_____O___P___ SH281974 -11.9914 111.654 -1 -12.3000 111.600 20 20 1003 1.00000 -12.0101 111.643 4 3 251
1974068S12112 1974 20 SI WA ISOBEL 1974-03-09 03:00:00 TS -12.0504 111.546 main 415 415 P_____P___P___ SH281974 -11.9800 111.560 -1 -12.2901 111.531 20 23 1003 -12.0313 111.528 4 3 262
1974068S12112 1974 20 SI WA ISOBEL 1974-03-09 04:00:00 TS -12.0609 111.497 25 1003 bom main 415 415 P_____O___P___ SH281974 -11.9802 111.510 -1 -12.3000 111.500 20 25 1003 1.50000 1.50000 -12.0430 111.471 4 3 237
1974068S12112 1974 20 SI WA ISOBEL 1974-03-09 06:00:00 TS -12.1403 111.405 main 415 415 O_____P__OP_O_ jtwc_sh SH281974 -12.0000 111.400 -1 -12.3612 111.441 20 25 1003 -12.4000 111.400 TC 25 1003 -12.0701 111.355 4 -12.4000 111.500 TC 25 1003 4 227
1974068S12112 1974 20 SI WA ISOBEL 1974-03-09 07:00:00 TS -12.1911 111.355 25 1003 bom main 426 426 P_____O__PP_P_ SH281974 -12.0219 111.339 -1 -12.4000 111.400 20 25 1003 1.50000 -12.4387 111.355 TC 25 1003 -12.0859 111.297 4 -12.4124 111.449 TC 25 1003 4 231
1974068S12112 1974 20 SI WA ISOBEL 1974-03-09 09:00:00 TS -12.2682 111.241 main 440 440 P_____P__PP_P_ SH281974 -12.0850 111.208 -1 -12.4667 111.272 20 25 1003 -12.5125 111.263 TC 25 1003 -12.1238 111.179 4 -12.4400 111.348 TC 25 1003 4 233
1974068S12112 1974 20 SI WA ISOBEL 1974-03-09 10:00:00 TS -12.3156 111.185 25 1003 bom main 440 440 P_____O__PP_P_ SH281974 -12.1225 111.139 -1 -12.5000 111.200 20 25 1003 1.50000 -12.5457 111.212 TC 25 1003 -12.1463 111.120 4 -12.4568 111.298 TC 25 1003 4 238
1974068S12112 1974 20 SI WA ISOBEL 1974-03-09 12:00:00 TS -12.3791 111.061 main 452 452 O_____P__OO_O_ jtwc_sh SH281974 -12.2000 111.000 -1 -12.5746 111.067 20 25 1003 -12.6000 111.100 TC 25 1003 -12.2000 111.000 4 -12.5000 111.200 TC 25 1003 4 243
1974068S12112 1974 20 SI WA ISOBEL 1974-03-09 13:00:00 TS -12.4067 110.998 25 1003 bom main 454 454 P_____O__PP_P_ SH281974 -12.2307 110.931 -1 -12.6000 111.000 20 25 1003 1.50000 -12.6198 111.036 TC 25 1003 -12.2316 110.939 4 -12.5276 111.153 TC 25 1003 4 248
1974068S12112 1974 20 SI WA ISOBEL 1974-03-09 15:00:00 TS -12.4547 110.871 main 467 467 P_____P__PP_P_ SH281974 -12.2925 110.792 -1 -12.5975 110.867 20 25 1003 -12.6500 110.900 TC 25 1003 -12.3034 110.817 4 -12.5925 111.057 TC 25 1003 4 248
1974068S12112 1974 20 SI WA ISOBEL 1974-03-09 16:00:00 TS -12.4810 110.808 25 1003 bom main 469 469 P_____O__PP_P_ SH281974 -12.3254 110.725 -1 -12.6000 110.800 20 25 1003 1.50000 -12.6642 110.831 TC 25 1003 -12.3430 110.756 4 -12.6279 111.008 TC 25 1003 4 244
1974068S12112 1974 20 SI WA ISOBEL 1974-03-09 18:00:00 TS -12.5481 110.682 main 472 472 O_____P__OP_O_ jtwc_sh SH281974 -12.4000 110.600 -1 -12.6612 110.659 20 25 1003 -12.7000 110.700 TC 25 1003 -12.4275 110.635 4 -12.7000 110.900 TC 25 1003 4 239
1974068S12112 1974 20 SI WA ISOBEL 1974-03-09 19:00:00 TS -12.5860 110.624 25 1003 bom main 485 485 P_____O__PP_P_ SH281974 -12.4443 110.544 -1 -12.7000 110.600 20 25 1003 1.50000 -12.7224 110.644 TC 25 1003 -12.4718 110.576 4 -12.7333 110.836 TC 25 1003 4 234
1974068S12112 1974 20 SI WA ISOBEL 1974-03-09 21:00:00 TS -12.6640 110.521 main 498 498 P_____P__PP_P_ SH281974 -12.5425 110.442 -1 -12.7588 110.536 20 25 1003 -12.7775 110.542 TC 25 1003 -12.5628 110.461 4 -12.8000 110.700 TC 25 1003 4 230
1974068S12112 1974 20 SI WA ISOBEL 1974-03-09 22:00:00 TS -12.7072 110.470 25 1003 bom main 498 498 P_____O__PP_P_ SH281974 -12.5945 110.395 -1 -12.8000 110.500 20 25 1003 1.50000 -12.8121 110.495 TC 25 1003 -12.6088 110.405 4 -12.8333 110.631 TC 25 1003 4 229
1974068S12112 1974 20 SI WA ISOBEL 1974-03-10 00:00:00 TS -12.8047 110.361 main 511 511 O_____P__OO_O_ jtwc_sh SH281974 -12.7000 110.300 -1 -12.9279 110.364 20 25 1003 -12.9000 110.400 TC 25 1003 -12.7000 110.300 4 -12.9000 110.500 TC 25 1003 4 226
1974068S12112 1974 20 SI WA ISOBEL 1974-03-10 01:00:00 TS -12.8574 110.307 25 1003 bom main 524 524 P_____O__PP_P_ SH281974 -12.7526 110.247 -1 -13.0000 110.300 20 25 1003 2.00000 2.00000 -12.9631 110.350 TC 25 1002 -12.7429 110.252 4 -12.9333 110.444 TC 25 1002 4 223
1974068S12112 1974 20 SI WA ISOBEL 1974-03-10 03:00:00 TS -12.9655 110.211 main 537 537 P_____P__PP_P_ SH281974 -12.8575 110.143 -1 -13.1412 110.228 20 25 1002 -13.1075 110.250 TC 27 1002 -12.8290 110.161 4 -13.0000 110.342 TC 25 1002 4 220
1974068S12112 1974 20 SI WA ISOBEL 1974-03-10 04:00:00 TS -13.0168 110.166 25 1002 bom main 537 537 P_____O__PP_P_ SH281974 -12.9079 110.092 -1 -13.2000 110.200 20 25 1002 2.00000 -13.1795 110.200 TC 28 1001 -12.8720 110.117 4 -13.0333 110.295 TC 25 1002 4 223
1974068S12112 1974 20 SI WA ISOBEL 1974-03-10 06:00:00 TS -13.1062 110.079 main 550 550 O_____P__OP_O_ jtwc_sh SH281974 -13.0000 110.000 -1 -13.2800 110.141 20 25 1001 -13.3000 110.100 TC 30 1001 -12.9574 110.035 4 -13.1000 110.200 TC 25 1002 4 226
1974068S12112 1974 20 SI WA ISOBEL 1974-03-10 07:00:00 TS -13.1404 110.037 25 1001 bom main 553 553 P_____O__PP_P_ SH281974 -13.0390 109.964 -1 -13.3000 110.100 20 25 1001 2.00000 -13.3312 110.050 TC 30 1000 -12.9996 109.995 4 -13.1333 110.147 TC 25 1001 3 237
1974068S12112 1974 20 SI WA ISOBEL 1974-03-10 09:00:00 TS -13.1933 109.947 main 566 566 P_____P__PP_P_ SH281974 -13.1075 109.900 -1 -13.2975 109.972 20 25 1001 -13.3650 109.950 TC 30 1000 -13.0821 109.917 4 -13.2000 110.042 TC 27 1001 3 240
1974068S12112 1974 20 SI WA ISOBEL 1974-03-10 10:00:00 TS -13.2180 109.901 25 1001 bom main 566 566 P_____O__PP_P_ SH281974 -13.1387 109.869 -1 -13.3000 109.900 20 25 1001 2.00000 -13.3751 109.900 TC 30 1000 -13.1223 109.878 4 -13.2333 109.992 TC 28 1000 3 237
1974068S12112 1974 20 SI WA ISOBEL 1974-03-10 12:00:00 TS -13.2769 109.810 main 579 579 O_____P__OO_O_ jtwc_sh SH281974 -13.2000 109.800 -1 -13.3612 109.759 20 25 1000 -13.4000 109.800 TC 30 1000 -13.2000 109.800 4 -13.3000 109.900 TC 30 1000 3 236
1974068S12112 1974 20 SI WA ISOBEL 1974-03-10 13:00:00 TS -13.3112 109.762 25 1000 bom main 579 579 P_____O__PP_P_ SH281974 -13.2333 109.753 -1 -13.4000 109.700 20 25 1000 2.00000 -13.4302 109.747 TC 30 1000 -13.2367 109.757 4 -13.3333 109.861 TC 30 999 3 233
1974068S12112 1974 20 SI WA ISOBEL 1974-03-10 15:00:00 TS -13.3790 109.672 main 592 592 P_____P__PP_P_ SH281974 -13.3000 109.650 -1 -13.4667 109.628 20 25 1000 -13.5000 109.643 TC 30 1000 -13.3072 109.671 4 -13.4000 109.792 TC 30 999 3 233
1974068S12112 1974 20 SI WA ISOBEL 1974-03-10 16:00:00 TS -13.4128 109.629 25 1000 bom main 594 594 P_____O__PP_P_ SH281974 -13.3333 109.598 -1 -13.5000 109.600 20 25 1000 2.00000 -13.5358 109.592 TC 30 1000 -13.3412 109.628 4 -13.4333 109.761 TC 30 999 3 232
1974068S12112 1974 20 SI WA ISOBEL 1974-03-10 18:00:00 TS -13.4803 109.546 main 607 607 O_____P__OP_O_ jtwc_sh SH281974 -13.4000 109.500 -1 -13.5746 109.533 20 28 1000 -13.6000 109.500 TC 30 1000 -13.4075 109.542 4 -13.5000 109.700 TC 30 999 3 231
1974068S12112 1974 20 SI WA ISOBEL 1974-03-10 19:00:00 TS -13.5091 109.508 30 1000 bom main 607 607 P_____O__PP_P_ SH281974 -13.4333 109.461 -1 -13.6000 109.500 20 30 1000 2.50000 -13.6171 109.458 TC 30 999 -13.4399 109.500 4 -13.5307 109.667 TC 30 999 3 235
1974068S12112 1974 20 SI WA ISOBEL 1974-03-10 21:00:00 TS -13.5548 109.437 main 621 621 P_____P__PP_P_ SH281974 -13.5000 109.392 -1 -13.5896 109.433 20 30 1000 -13.6425 109.385 TC 30 999 -13.5041 109.418 4 -13.5925 109.600 TC 30 999 2 235
1974068S12112 1974 20 SI WA ISOBEL 1974-03-10 22:00:00 TS -13.5807 109.403 30 1000 bom main 621 621 P_____O__PP_P_ SH281974 -13.5333 109.361 -1 -13.6000 109.400 20 30 1000 2.50000 -13.6563 109.353 TC 30 999 -13.5360 109.378 4 -13.6254 109.567 TC 30 999 3 223
1974068S12112 1974 20 SI WA ISOBEL 1974-03-11 00:00:00 TS -13.6551 109.338 main 634 634 O_____P__OO_O_ jtwc_sh SH281974 -13.6000 109.300 -1 -13.7304 109.325 20 30 999 -13.7000 109.300 TC 30 999 -13.6000 109.300 4 -13.7000 109.500 TC 30 999 3 221
1974068S12112 1974 20 SI WA ISOBEL 1974-03-11 01:00:00 TS -13.6972 109.307 30 999 bom main 634 634 P_____O__PP_P_ SH281974 -13.6333 109.267 -1 -13.8000 109.300 20 30 999 2.50000 -13.7386 109.280 TC 31 998 -13.6309 109.263 4 -13.7469 109.467 TC 31 998 3 213
1974068S12112 1974 20 SI WA ISOBEL 1974-03-11 03:00:00 TS -13.7748 109.258 main 645 645 P_____P__PP_P_ SH281974 -13.7000 109.200 -1 -13.8721 109.302 20 36 996 -13.8350 109.250 TC 35 996 -13.6918 109.193 4 -13.8500 109.400 TC 35 997 3 212
1974068S12112 1974 20 SI WA ISOBEL 1974-03-11 04:00:00 TS -13.8134 109.232 40 996 bom main 648 648 P_____O__PP_P_ SH281974 -13.7333 109.167 -1 -13.9000 109.300 30 40 996 3.00000 3.00000 -13.8891 109.236 TC 36 995 -13.7224 109.159 4 -13.9025 109.367 TC 36 996 3 216
1974068S12112 1974 20 SI WA ISOBEL 1974-03-11 06:00:00 TS -13.8906 109.172 main 659 659 O_____P__OP_O_ jtwc_sh SH281974 -13.8000 109.100 -1 -13.9588 109.239 30 40 993 -14.0000 109.200 TC 40 993 -13.7850 109.092 4 -14.0000 109.300 TC 40 995 3 217
1974068S12112 1974 20 SI WA ISOBEL 1974-03-11 07:00:00 TS -13.9280 109.139 40 993 bom main 661 661 P_____O__PP_P_ SH281974 -13.8307 109.067 -1 -14.0000 109.200 30 40 993 3.00000 -14.0526 109.175 TC 41 992 -13.8174 109.060 4 -14.0364 109.267 TC 40 994 3 218
1974068S12112 1974 20 SI WA ISOBEL 1974-03-11 09:00:00 TS -14.0106 109.075 main 672 672 P_____P__PP_P_ SH281974 -13.8925 109.000 -1 -14.1358 109.141 30 43 991 -14.1575 109.115 TC 45 991 -13.8856 108.996 4 -14.1000 109.200 TC 42 992 3 218
1974068S12112 1974 20 SI WA ISOBEL 1974-03-11 10:00:00 TS -14.0519 109.041 45 991 bom main 686 686 P_____O__PP_P_ SH281974 -13.9254 108.967 -1 -14.2000 109.100 30 45 991 3.00000 -14.2079 109.080 TC 46 990 -13.9219 108.964 4 -14.1309 109.167 TC 43 991 3 224
1974068S12112 1974 20 SI WA ISOBEL 1974-03-11 12:00:00 TS -14.1287 108.961 main 686 686 O_____P__OO_O_ jtwc_sh SH281974 -14.0000 108.900 -1 -14.2721 108.964 30 48 989 -14.3000 109.000 TC 50 989 -14.0000 108.900 4 -14.2000 109.100 TC 45 990 3 226
1974068S12112 1974 20 SI WA ISOBEL 1974-03-11 13:00:00 TS -14.1686 108.920 50 989 bom main 700 700 P_____O__PP_P_ SH281974 -14.0443 108.867 -1 -14.3000 108.900 30 50 989 3.50000 -14.3364 108.950 TC 50 988 -14.0396 108.872 4 -14.2469 109.067 TC 46 989 3 222
1974068S12112 1974 20 SI WA ISOBEL 1974-03-11 15:00:00 TS -14.2529 108.848 main 713 713 P_____P__PP_P_ SH281974 -14.1425 108.800 -1 -14.3588 108.828 30 53 985 -14.4000 108.842 TC 52 987 -14.1234 108.816 4 -14.3500 109.000 TC 50 988 3 219
1974068S12112 1974 20 SI WA ISOBEL 1974-03-11 16:00:00 TS -14.2984 108.813 55 984 bom main 713 713 P_____O__PP_P_ SH281974 -14.1946 108.767 -1 -14.4000 108.800 30 55 984 4.00000 -14.4309 108.790 TC 53 986 -14.1678 108.788 4 -14.4025 108.967 TC 51 987 4 214
1974068S12112 1974 20 SI WA ISOBEL 1974-03-11 18:00:00 TS -14.3997 108.744 main 727 727 O_____P__OP_O_ jtwc_sh SH281974 -14.3000 108.700 -1 -14.5358 108.733 30 55 984 -14.5000 108.700 TC 55 985 -14.2624 108.730 4 -14.5000 108.900 TC 55 986 4 214
1974068S12112 1974 20 SI WA ISOBEL 1974-03-11 19:00:00 TS -14.4450 108.713 55 985 bom main 727 727 P_____O__PP_P_ SH281974 -14.3474 108.672 -1 -14.6000 108.700 30 55 985 4.00000 -14.5338 108.675 TC 55 984 -14.3127 108.698 4 -14.5286 108.864 TC 55 985 3 213
1974068S12112 1974 20 SI WA ISOBEL 1974-03-11 21:00:00 TS -14.5279 108.653 main 738 738 P_____P__PP_P_ SH281974 -14.4425 108.615 -1 -14.6721 108.625 30 55 983 -14.6125 108.642 TC 57 983 -14.4202 108.629 4 -14.5775 108.792 TC 57 984 3 214
1974068S12112 1974 20 SI WA ISOBEL 1974-03-11 22:00:00 TS -14.5720 108.624 55 983 bom main 752 752 P_____O__PP_P_ SH281974 -14.4921 108.582 -1 -14.7000 108.600 30 55 983 4.00000 -14.6629 108.630 TC 58 982 -14.4776 108.589 4 -14.6072 108.759 TC 58 983 3 210
1974068S12112 1974 20 SI WA ISOBEL 1974-03-12 00:00:00 TS -14.6738 108.567 main 763 763 O_____P__OO_O_ jtwc_sh SH281974 -14.6000 108.500 -1 -14.7430 108.602 30 55 981 -14.8000 108.600 TC 60 981 -14.6000 108.500 4 -14.7000 108.700 TC 60 982 4 208
1974068S12112 1974 20 SI WA ISOBEL 1974-03-12 01:00:00 TS -14.7391 108.531 55 981 bom main 766 766 P_____O__PP_P_ SH281974 -14.6583 108.445 -1 -14.8000 108.600 30 55 981 4.00000 4.00000 -14.8886 108.572 TC 60 980 -14.6601 108.444 4 -14.7693 108.680 TC 60 981 5 207
1974068S12112 1974 20 SI WA ISOBEL 1974-03-12 03:00:00 TS -14.9100 108.441 main 791 791 P_____P__PP_P_ SH281974 -14.7850 108.315 -1 -15.0504 108.539 30 58 980 -15.1050 108.508 TC 60 979 -14.7873 108.321 4 -14.9475 108.650 TC 62 980 6 207
1974068S12112 1974 20 SI WA ISOBEL 1974-03-12 04:00:00 TS -15.0075 108.392 60 980 bom main 801 801 P_____O__PP_P_ SH281974 -14.8533 108.244 -1 -15.2000 108.500 30 60 980 4.00000 -15.2291 108.472 TC 60 979 -14.8547 108.254 4 -15.0546 108.636 TC 63 980 7 205
1974068S12112 1974 20 SI WA ISOBEL 1974-03-12 06:00:00 TS -15.2094 108.291 main 826 826 O_____P__OP_O_ jtwc_sh SH281974 -15.0000 108.100 -1 -15.4588 108.433 30 60 978 -15.5000 108.400 TC 60 978 -14.9976 108.115 4 -15.3000 108.600 TC 65 979 7 205
1974068S12112 1974 20 SI WA ISOBEL 1974-03-12 07:00:00 TS -15.3171 108.241 60 978 bom main 840 840 P_____O__PP_P_ SH281974 -15.0750 108.031 -1 -15.6000 108.400 30 60 978 4.00000 -15.6438 108.367 TC 60 977 -15.0734 108.044 4 -15.4355 108.575 TC 65 978 8 203
1974068S12112 1974 20 SI WA ISOBEL 1974-03-12 09:00:00 TS -15.5542 108.139 main 874 874 P_____P__PP_P_ SH281974 -15.2350 107.892 -1 -15.9358 108.333 30 63 977 -15.9500 108.300 TC 62 977 -15.2342 107.902 4 -15.7350 108.515 TC 65 977 8 202
1974068S12112 1974 20 SI WA ISOBEL 1974-03-12 10:00:00 TS -15.6760 108.088 65 977 bom main 885 885 P_____O__PP_P_ SH281974 -15.3200 107.825 -1 -16.1000 108.300 40 65 977 -16.1049 108.267 TC 63 976 -15.3194 107.832 4 -15.8916 108.480 TC 65 977 8 201
1974068S12112 1974 20 SI WA ISOBEL 1974-03-12 12:00:00 TS -15.9133 107.989 main 908 908 O_____P__OO_O_ jtwc_sh SH281974 -15.5000 107.700 -1 -16.3800 108.233 40 65 976 -16.4000 108.200 TC 65 976 -15.5000 107.700 4 -16.2000 108.400 TC 65 976 7 202
1974068S12112 1974 20 SI WA ISOBEL 1974-03-12 13:00:00 TS -16.0211 107.946 65 976 bom main 919 903 P_____O__PP_P_ SH281974 -15.5917 107.644 -1 -16.5000 108.200 40 65 976 4.50000 -16.5254 108.172 TC 65 975 -15.5788 107.658 4 -16.3390 108.356 TC 65 975 7 200
1974068S12112 1974 20 SI WA ISOBEL 1974-03-12 15:00:00 TS -16.2279 107.864 main 903 903 P_____P__PP_P_ SH281974 -15.7850 107.542 -1 -16.6896 108.141 40 65 975 -16.7575 108.115 TC 65 975 -15.7431 107.583 4 -16.6075 108.257 TC 67 975 7 201
1974068S12112 1974 20 SI WA ISOBEL 1974-03-12 16:00:00 TS -16.3354 107.821 65 975 bom main 903 887 P_____O__PP_P_ SH281974 -15.8866 107.495 -1 -16.8000 108.100 40 65 975 4.50000 -16.8696 108.082 TC 65 974 -15.8306 107.548 4 -16.7388 108.205 TC 68 975 8 201
1974068S12112 1974 20 SI WA ISOBEL 1974-03-12 18:00:00 TS -16.5767 107.724 main 887 880 O_____P__OP_O_ jtwc_sh SH281974 -16.1000 107.400 -1 -17.1383 107.972 40 68 974 -17.1000 108.000 TC 65 974 -16.0219 107.473 4 -17.0000 108.100 TC 70 975 8 201
1974068S12112 1974 20 SI WA ISOBEL 1974-03-12 19:00:00 TS -16.6961 107.674 70 974 bom main 880 873 P_____O__PP_P_ SH281974 -16.2004 107.360 -1 -17.3000 107.900 40 70 974 4.50000 -17.2198 107.942 TC 65 973 -16.1277 107.430 4 -17.1281 108.053 TC 70 974 8 203
1974068S12112 1974 20 SI WA ISOBEL 1974-03-12 21:00:00 TS -16.9233 107.568 main 873 873 P_____P__PP_P_ SH281974 -16.4124 107.280 -1 -17.4951 107.759 40 70 974 -17.4700 107.808 TC 67 973 -16.3648 107.326 4 -17.3850 107.957 TC 70 974 8 204
1974068S12112 1974 20 SI WA ISOBEL 1974-03-12 22:00:00 TS -17.0465 107.511 70 974 bom main 874 860 P_____O__PP_P_ SH281974 -16.5295 107.231 -1 -17.6000 107.700 40 70 974 4.50000 -17.6042 107.736 TC 68 973 -16.4982 107.262 4 -17.5175 107.908 TC 70 973 9 202
1974068S12112 1974 20 SI WA ISOBEL 1974-03-13 00:00:00 TS -17.3371 107.389 main 861 854 O_____P__OO_O_ jtwc_sh SH281974 -16.8000 107.100 -1 -17.9225 107.636 40 70 973 -17.9000 107.600 TC 70 973 -16.8000 107.100 4 -17.8000 107.800 TC 70 973 10 202
1974068S12112 1974 20 SI WA ISOBEL 1974-03-13 01:00:00 TS -17.4990 107.321 70 973 bom main 856 845 P_____O__PP_P_ SH281974 -16.9500 107.017 -1 -18.1000 107.600 40 70 973 4.50000 4 -18.0688 107.552 TC 69 973 -16.9701 107.000 4 -17.9552 107.742 TC 69 973 11 204
1974068S12112 1974 20 SI WA ISOBEL 1974-03-13 03:00:00 TS -17.8452 107.156 main 845 842 P_____P__PP_P_ SH281974 -17.2899 106.810 -1 -18.4254 107.472 40 70 974 -18.4349 107.465 TC 67 974 -17.3459 106.762 4 -18.2850 107.615 TC 67 974 12 205
1974068S12112 1974 20 SI WA ISOBEL 1974-03-13 04:00:00 TS -18.0316 107.061 70 975 bom main 842 837 P_____O__PP_P_ SH281974 -17.4799 106.686 -1 -18.6000 107.400 40 70 975 4.50000 4.50000 -18.6248 107.418 TC 66 974 -17.5494 106.628 4 -18.4558 107.547 TC 66 974 13 206
1974068S12112 1974 20 SI WA ISOBEL 1974-03-13 06:00:00 TS -18.4320 106.851 main 837 836 O_____P__OP_O_ jtwc_sh SH281974 -17.9000 106.400 -1 -19.0104 107.275 40 70 975 -19.0000 107.300 TC 65 975 -17.9817 106.330 4 -18.8000 107.400 TC 65 976 14 207
1974068S12112 1974 20 SI WA ISOBEL 1974-03-13 07:00:00 TS -18.6371 106.733 70 975 bom main 845 825 P_____O__PP_P_ SH281974 -18.1298 106.238 -1 -19.2000 107.200 40 70 975 4.50000 -19.1829 107.222 TC 63 976 -18.2083 106.170 4 -18.9719 107.330 TC 64 976 14 203
1974068S12112 1974 20 SI WA ISOBEL 1974-03-13 09:00:00 TS -19.0957 106.556 main 825 824 P_____P__PP_P_ SH281974 -18.6204 105.881 -1 -19.4617 107.005 40 66 976 -19.5374 107.038 TC 60 978 -18.6767 105.833 4 -19.3149 107.180 TC 62 978 15 194
1974068S12112 1974 20 SI WA ISOBEL 1974-03-13 10:00:00 TS -19.3602 106.544 65 977 bom main 819 799 P_____O__PP_P_ SH281974 -18.8767 105.692 -1 -19.6000 106.900 40 65 977 4.50000 -19.7036 106.932 TC 58 979 -18.9161 105.658 4 -19.4824 107.096 TC 61 978 15 186
1974068S12112 1974 20 SI WA ISOBEL 1974-03-13 12:00:00 TS -19.8322 106.475 main 799 776 O_____P__OO_O_ jtwc_sh SH281974 -19.4000 105.300 -1 -20.0207 106.708 40 61 980 -20.0000 106.700 TC 55 982 -19.4000 105.300 6 -19.8000 106.900 TC 60 980 15 172
1974068S12112 1974 20 SI WA ISOBEL 1974-03-13 13:00:00 TS -20.0918 106.654 60 982 bom main 767 762 ______O__P__P_ SH281974 -1 -20.2000 106.600 30 60 982 4.00000 -20.1228 106.578 TC 55 982 6 -19.9526 106.784 TC 59 980 10 190
1974068S12112 1974 20 SI WA ISOBEL 1974-03-13 15:00:00 TS -20.3049 106.395 main 787 787 ______P__P__P_ SH281974 -1 -20.3471 106.347 30 56 984 -20.3300 106.315 TC 55 983 6 -20.2375 106.523 TC 57 982 10 231
1974068S12112 1974 20 SI WA ISOBEL 1974-03-13 16:00:00 TS -20.3965 106.253 55 986 bom main 793 793 ______O__P__P_ SH281974 -1 -20.4000 106.200 30 55 986 4.00000 -20.4217 106.177 TC 55 983 6 -20.3679 106.383 TC 56 982 10 235
1974068S12112 1974 20 SI WA ISOBEL 1974-03-13 18:00:00 TS -20.5982 105.952 main 816 816 ______P__O__O_ -1 -20.5946 105.856 30 55 985 -20.6000 105.900 TC 55 985 6 -20.6000 106.100 TC 55 984 10 234
1974068S12112 1974 20 SI WA ISOBEL 1974-03-13 19:00:00 TS -20.7009 105.813 55 985 bom main 833 833 ______O__P__P_ -1 -20.7000 105.700 30 55 985 4.00000 -20.7025 105.777 TC 54 985 6 -20.7003 105.962 TC 54 984 9 231
1974068S12112 1974 20 SI WA ISOBEL 1974-03-13 21:00:00 TS -20.8958 105.565 main 847 847 ______P__P__P_ -1 -20.8999 105.505 30 55 985 -20.9072 105.530 TC 52 986 6 -20.8751 105.693 TC 52 985 9 231
1974068S12112 1974 20 SI WA ISOBEL 1974-03-13 22:00:00 TS -20.9937 105.431 55 986 bom main 864 864 ______O__P__P_ -1 -21.0000 105.400 30 55 986 4.00000 -21.0076 105.398 TC 51 986 6 -20.9532 105.561 TC 51 985 10 235
1974068S12112 1974 20 SI WA ISOBEL 1974-03-14 00:00:00 TS -21.1889 105.112 main 890 890 ______P__O__O_ -1 -21.2000 105.078 30 51 987 -21.2000 105.100 TC 50 988 -21.1000 105.300 TC 50 987 11 238
1974068S12112 1974 20 SI WA ISOBEL 1974-03-14 01:00:00 TS -21.2919 104.910 50 988 bom main 908 908 ______O__P____ -1 -21.3000 104.900 30 50 988 3.50000 3.50000 -21.2839 104.920 TC 50 988 TC 12 241
1974068S12112 1974 20 SI WA ISOBEL 1974-03-14 03:00:00 TS -21.4752 104.552 main 935 935 ______P__P____ -1 -21.5078 104.582 30 50 989 -21.4426 104.522 TC 50 988 TC 12 242
1974068S12112 1974 20 SI WA ISOBEL 1974-03-14 04:00:00 TS -21.5615 104.357 50 990 bom main 953 953 ______O__P____ -1 -21.6000 104.400 30 50 990 3.50000 -21.5231 104.314 TC 50 988 TC 13 248
1974068S12112 1974 20 SI WA ISOBEL 1974-03-14 06:00:00 TS -21.7115 103.910 main 1003 1003 ______P__O____ -1 -21.7231 103.920 30 46 989 -21.7000 103.900 TC 50 989 13 248
1974068S12112 1974 20 SI WA ISOBEL 1974-03-14 07:00:00 TS -21.8038 103.708 45 989 bom main 1022 1022 ______O__P____ -1 -21.8000 103.700 30 45 989 3.00000 -21.8077 103.716 TC 48 989 12 234
1974068S12112 1974 20 SI WA ISOBEL 1974-03-14 09:00:00 TS -22.0528 103.399 main 1049 1049 ______P__P____ -1 -22.0635 103.441 30 45 989 -22.0421 103.357 TC 45 991 12 229
1974068S12112 1974 20 SI WA ISOBEL 1974-03-14 10:00:00 TS -22.1817 103.238 45 990 bom main 1069 1069 ______O__P____ -1 -22.2000 103.300 30 45 990 3.00000 -22.1633 103.177 TC 43 991 13 237
1974068S12112 1974 20 SI WA ISOBEL 1974-03-14 12:00:00 TS -22.4028 102.821 main 1103 1103 ______P__O____ -1 -22.4055 102.842 30 41 992 -22.4000 102.800 TC 40 993 14 241
1974068S12112 1974 20 SI WA ISOBEL 1974-03-14 13:00:00 TS -22.5042 102.596 40 993 bom main 1121 1121 ______O__P____ -1 -22.5000 102.600 30 40 993 3.00000 -22.5083 102.592 TC 40 993 13 243
1974068S12112 1974 20 SI WA ISOBEL 1974-03-14 15:00:00 TS -22.7074 102.180 main 1156 1156 ______P__P____ -1 -22.6999 102.202 30 40 993 -22.7150 102.157 TC 40 993 13 242
1974068S12112 1974 20 SI WA ISOBEL 1974-03-14 16:00:00 TS -22.8067 101.968 40 994 bom main 1174 1174 ______O__P____ -1 -22.8000 102.000 30 40 994 3.00000 -22.8133 101.936 TC 40 993 14 244
1974068S12112 1974 20 SI WA ISOBEL 1974-03-14 18:00:00 TS -23.0000 101.515 main 1220 1220 ______P__O____ -1 -23.0000 101.531 30 40 993 -23.0000 101.500 TC 40 993 14 245
1974068S12112 1974 20 SI WA ISOBEL 1974-03-14 19:00:00 TS -23.0983 101.298 40 993 bom main 1238 1238 ______O__P____ -1 -23.1000 101.300 30 40 993 3.00000 -23.0967 101.297 TC 40 993 13 243
1974068S12112 1974 20 SI WA ISOBEL 1974-03-14 21:00:00 TS -23.2937 100.897 main 1276 1276 ______P__P____ -1 -23.3078 100.895 30 40 993 -23.2796 100.900 TC 40 993 12 243
1974068S12112 1974 20 SI WA ISOBEL 1974-03-14 22:00:00 TS -23.3811 100.701 40 993 bom main 1294 1294 ______O__P____ -1 -23.4000 100.700 30 40 993 3.00000 -23.3621 100.702 TC 40 993 12 247
1974068S12112 1974 20 SI WA ISOBEL 1974-03-15 00:00:00 TS -23.5233 100.300 main 1333 1333 ______P__O____ -1 -23.5466 100.300 30 40 993 -23.5000 100.300 TC 40 994 12 250
1974068S12112 1974 20 SI WA ISOBEL 1974-03-15 01:00:00 TS -23.5804 100.096 40 994 bom main 1352 1352 ______O__P____ -1 -23.6000 100.100 30 40 994 3.00000 -23.5608 100.092 TC 40 994 12 256
1974068S12112 1974 20 SI WA ISOBEL 1974-03-15 03:00:00 TS -23.6660 99.6904 main 1391 1391 ______P__P____ -1 -23.6799 99.7158 30 40 994 -23.6522 99.6651 TC 40 994 12 259
1974068S12112 1974 20 SI WA ISOBEL 1974-03-15 04:00:00 TS -23.6905 99.4734 40 995 bom main 1412 1412 ______O__P____ -1 -23.7000 99.5000 30 40 995 3.00000 3.00000 -23.6810 99.4468 TC 40 994 13 266
1974068S12112 1974 20 SI WA ISOBEL 1974-03-15 06:00:00 TS -23.7067 98.9809 main 1462 1462 ______P__O____ -1 -23.7134 98.9617 30 40 994 -23.7000 99.0000 TC 40 994 14 269
1974068S12112 1974 20 SI WA ISOBEL 1974-03-15 07:00:00 TS -23.6973 98.7348 40 994 bom main 1493 1493 ______O__P____ -1 -23.7000 98.7000 30 40 994 3.00000 -23.6947 98.7696 TC 38 994 13 276
1974068S12112 1974 20 SI WA ISOBEL 1974-03-15 09:00:00 TS -23.6457 98.2985 main 1534 1534 ______P__P____ -1 -23.6465 98.2971 30 36 995 -23.6449 98.2998 TC 35 997 12 279
1974068S12112 1974 20 SI WA ISOBEL 1974-03-15 10:00:00 TS -23.6020 98.0821 35 996 bom main 1555 1555 ______O__P____ -1 -23.6000 98.1000 30 35 996 3.00000 -23.6041 98.0641 TC 33 997 13 284
1974068S12112 1974 20 SI WA ISOBEL 1974-03-15 12:00:00 TS -23.4861 97.6154 main 1606 1606 ______P__O____ -1 -23.4721 97.6308 30 31 998 -23.5000 97.6000 TC 30 1000 13 286
1974068S12112 1974 20 SI WA ISOBEL 1974-03-15 13:00:00 TS -23.4223 97.3875 30 1000 bom main 1628 1628 ______O__P____ -1 -23.4000 97.4000 20 30 1000 2.50000 -23.4446 97.3750 TC 29 1000 13 288
1974068S12112 1974 20 SI WA ISOBEL 1974-03-15 15:00:00 TS -23.2906 96.9688 main 1670 1670 ______P__P____ -1 -23.2665 97.0025 20 26 1002 -23.3147 96.9350 TC 27 1001 12 289
1974068S12112 1974 20 SI WA ISOBEL 1974-03-15 16:00:00 TS -23.2220 96.7600 25 1003 bom main 1692 1692 ______O__P____ -1 -23.2000 96.8000 20 25 1003 2.00000 -23.2440 96.7200 TC 26 1001 13 289
1974068S12112 1974 20 SI WA ISOBEL 1974-03-15 18:00:00 TS -23.0833 96.3154 main 1744 1744 ______P__O____ -1 -23.0667 96.3309 20 25 1002 -23.1000 96.3000 TC 25 1002 13 289
1974068S12112 1974 20 SI WA ISOBEL 1974-03-15 19:00:00 TS -23.0153 96.0906 25 1002 bom main 1766 1766 ______O__P____ -1 -23.0000 96.1000 20 25 1002 2.00000 -23.0307 96.0812 TC 25 1002 12 289
1974068S12112 1974 20 SI WA ISOBEL 1974-03-15 21:00:00 TS -22.8796 95.6748 main 1808 1808 ______P__P____ -1 -22.8666 95.6946 20 25 1002 -22.8925 95.6550 TC 25 1002 12 290
1974068S12112 1974 20 SI WA ISOBEL 1974-03-15 22:00:00 TS -22.8127 95.4775 25 1002 bom main 1830 1830 ______O__P____ -1 -22.8000 95.5000 20 25 1002 2.00000 -22.8255 95.4550 TC 25 1002 12 290
1974068S12112 1974 20 SI WA ISOBEL 1974-03-16 00:00:00 TS -22.6794 95.0881 main 1872 1872 ______P__O____ -1 -22.6588 95.0763 20 25 1002 -22.7000 95.1000 TC 25 1003 11 290
1974068S12112 1974 20 SI WA ISOBEL 1974-03-16 01:00:00 TS -22.6246 94.9301 25 1003 bom main 1894 1894 ______O__P____ -1 -22.6000 94.9000 20 25 1003 2.00000 -22.6493 94.9603 TC 25 1003 8 291
1974068S12112 1974 20 SI WA ISOBEL 1974-03-16 03:00:00 TS -22.5464 94.7059 main 1916 1916 ______P__P____ -1 -22.5357 94.6838 20 25 1003 -22.5570 94.7280 TC 25 1003 6 292
1974068S12112 1974 20 SI WA ISOBEL 1974-03-16 04:00:00 TS -22.5050 94.6112 25 1004 bom main 1927 1927 ______O__P____ -1 -22.5000 94.6000 20 25 1004 2.00000 2.00000 -22.5100 94.6224 TC 25 1003 6 300
1974068S12112 1974 20 SI WA ISOBEL 1974-03-16 06:00:00 TS -22.3900 94.4079 main 1949 1949 ______P__O____ -1 -22.3799 94.4159 20 25 1003 -22.4000 94.4000 TC 25 1003 7 303
1974068S12112 1974 20 SI WA ISOBEL 1974-03-16 07:00:00 TS -22.3101 94.2807 25 1003 bom main 1961 1961 ______O__P____ -1 -22.3000 94.3000 20 25 1003 2.00000 -22.3202 94.2613 TC 24 1003 10 304
1974068S12112 1974 20 SI WA ISOBEL 1974-03-16 09:00:00 TS -22.1161 93.9711 main 1995 1995 ______P__P____ -1 -22.0896 93.9774 20 25 1003 -22.1425 93.9647 TC 22 1004 10 303
1974068S12112 1974 20 SI WA ISOBEL 1974-03-16 10:00:00 TS -22.0269 93.8053 25 1004 bom main 2018 2018 ______O__P____ -1 -22.0000 93.8000 20 25 1004 2.00000 -22.0538 93.8106 TC 21 1004 10 294
1974068S12112 1974 20 SI WA ISOBEL 1974-03-16 12:00:00 TS -21.9112 93.4794 main 2050 2050 ______P__O____ -1 -21.9225 93.4588 20 25 1004 -21.9000 93.5000 TC 20 1005 9 289
1974068S12112 1974 20 SI WA ISOBEL 1974-03-16 13:00:00 TS -21.8761 93.3238 25 1005 bom main 2071 2071 ______O__P____ -1 -21.9000 93.3000 20 25 1005 1.50000 -21.8521 93.3476 TC 20 1005 8 284
1974068S12112 1974 20 SI WA ISOBEL 1974-03-16 15:00:00 TS -21.8091 93.0354 main 2103 2103 ______P__P____ -1 -21.8333 93.0279 20 25 1005 -21.7849 93.0428 TC 20 1005 8 284
1974068S12112 1974 20 SI WA ISOBEL 1974-03-16 16:00:00 TS -21.7791 92.8962 25 1006 bom main 2113 2113 ______O__P____ -1 -21.8000 92.9000 20 25 1006 1.50000 -21.7582 92.8924 TC 20 1005 8 283
1974068S12112 1974 20 SI WA ISOBEL 1974-03-16 18:00:00 TS -21.7206 92.6167 main 2146 2146 ______P__O____ -1 -21.7412 92.6334 20 25 1005 -21.7000 92.6000 TC 20 1005 8 284
1974068S12112 1974 20 SI WA ISOBEL 1974-03-16 19:00:00 TS -21.6810 92.4799 25 1005 bom main 2154 2153 ______O__P____ -1 -21.7000 92.5000 20 25 1005 1.50000 -21.6619 92.4597 TC 19 1005 8 293
1974068S12112 1974 20 SI WA ISOBEL 1974-03-16 21:00:00 TS -21.5657 92.2146 main 2167 2158 ______P__P____ -1 -21.5642 92.2333 20 25 1005 -21.5676 92.1897 TC 17 1005 8 295
1974068S12112 1974 20 SI WA ISOBEL 1974-03-16 22:00:00 TS -21.5056 92.0834 25 1005 bom main 2165 2165 ______O__P____ -1 -21.5000 92.1000 20 25 1005 1.50000 -21.5140 92.0585 TC 16 1005 8 292
1974068S12112 1974 20 SI WA ISOBEL 1974-03-17 00:00:00 TS -21.4157 91.8222 main 2178 2178 ______P__O____ -1 -21.4235 91.8334 20 25 1005 -21.4000 91.8000 TC 15 1006 7 287
1974068S12112 1974 20 SI WA ISOBEL 1974-03-17 01:00:00 NR -21.4000 91.7000 25 1006 bom main 2185 ______O_______ -1 -21.4000 91.7000 20 25 1006 1.50000 1.50000 TC 7 278

IBTrACS Databaseについて

本データベースは、米国NOAAが公開する1842年以降の世界の熱帯低気圧のベストトラックデータアーカイブInternational Best Track Archive for Climate Stewardship (IBTrACS)を、ウェブで閲覧しやすい形式に変換したものです。

最終更新日:2021-12-06